KNFL/NFL METAR and TAF weather

Enter ICAO airport designator
Station Type Date Time Source
KNFL METAR 2021/02/25 00:56 UTC NOAA

KNFL 250056Z 01012KT 8SM FEW040 FEW100 03/M14 A3038 RMK SLP244 T00331139


Station Type Date Time Source
KNFL Decoded METAR 2021/02/25 00:56 UTC NOAA

FALLON NAVAL AIR STATION, NV, United States (KNFL) 39-26N 118-41W 1199M
Feb 24, 2021 - 07:56 PM EST / 2021.02.25 0056 UTC
Wind: from the N (010 degrees) at 14 MPH (12 KT):0
Visibility: 8 mile(s):0
Sky conditions: mostly clear
Temperature: 37.9 F (3.3 C)
Dew Point: 7.0 F (-13.9 C)
Relative Humidity: 27%
Pressure (altimeter): 30.38 in. Hg (1028 hPa)
ob: KNFL 250056Z 01012KT 8SM FEW040 FEW100 03/M14 A3038 RMK SLP244 T00331139
cycle: 1

Station Type Date Time Source
KNFL TAF 2021/02/24 23:09 UTC NOAA

TAF KNFL 2423/2523 34015G25KT 9999 FEW040 FEW100 520009 520909 QNH3030INS
TEMPO 2423/2503 02018G30KT 6000 BLDU
FM250600 VRB06KT 9999 SKC 500000 QNH3034INS TM11/2513Z T07/2522Z FS30123

Example: see airport list